sensor_id;sensor_type;location;lat;lon;timestamp;temperature;humidity
71082;SHT31;58740;50.672;18.690;2023-04-25T00:01:08;12.96;75.31
71082;SHT31;58740;50.672;18.690;2023-04-25T00:03:36;12.97;75.43
71082;SHT31;58740;50.672;18.690;2023-04-25T00:06:06;12.97;75.50
71082;SHT31;58740;50.672;18.690;2023-04-25T00:08:35;12.96;75.52
71082;SHT31;58740;50.672;18.690;2023-04-25T00:11:02;12.97;75.55
71082;SHT31;58740;50.672;18.690;2023-04-25T00:13:31;12.97;75.36
71082;SHT31;58740;50.672;18.690;2023-04-25T00:15:59;12.97;75.17
71082;SHT31;58740;50.672;18.690;2023-04-25T00:18:27;12.96;75.06
71082;SHT31;58740;50.672;18.690;2023-04-25T00:20:56;12.96;75.02
71082;SHT31;58740;50.672;18.690;2023-04-25T00:23:24;12.95;74.93
71082;SHT31;58740;50.672;18.690;2023-04-25T00:25:52;12.91;74.56
71082;SHT31;58740;50.672;18.690;2023-04-25T00:28:19;12.87;74.13
71082;SHT31;58740;50.672;18.690;2023-04-25T00:30:47;12.81;73.82
71082;SHT31;58740;50.672;18.690;2023-04-25T00:33:15;12.76;73.63
71082;SHT31;58740;50.672;18.690;2023-04-25T00:35:43;12.72;73.74
71082;SHT31;58740;50.672;18.690;2023-04-25T00:38:10;12.68;73.74
71082;SHT31;58740;50.672;18.690;2023-04-25T00:40:38;12.65;73.65
71082;SHT31;58740;50.672;18.690;2023-04-25T00:43:06;12.61;73.66
71082;SHT31;58740;50.672;18.690;2023-04-25T00:45:33;12.58;73.67
71082;SHT31;58740;50.672;18.690;2023-04-25T00:48:06;12.57;73.84
71082;SHT31;58740;50.672;18.690;2023-04-25T00:50:34;12.55;73.72
71082;SHT31;58740;50.672;18.690;2023-04-25T00:53:03;12.52;73.57
71082;SHT31;58740;50.672;18.690;2023-04-25T00:55:32;12.49;73.31
71082;SHT31;58740;50.672;18.690;2023-04-25T00:58:01;12.45;73.22
71082;SHT31;58740;50.672;18.690;2023-04-25T01:00:29;12.41;73.07
71082;SHT31;58740;50.672;18.690;2023-04-25T01:02:57;12.37;72.91
71082;SHT31;58740;50.672;18.690;2023-04-25T01:05:26;12.33;72.81
71082;SHT31;58740;50.672;18.690;2023-04-25T01:07:53;12.30;72.74
71082;SHT31;58740;50.672;18.690;2023-04-25T01:10:22;12.28;72.82
71082;SHT31;58740;50.672;18.690;2023-04-25T01:12:50;12.23;72.73
71082;SHT31;58740;50.672;18.690;2023-04-25T01:15:18;12.21;72.69
71082;SHT31;58740;50.672;18.690;2023-04-25T01:17:45;12.17;72.53
71082;SHT31;58740;50.672;18.690;2023-04-25T01:20:13;12.16;72.41
71082;SHT31;58740;50.672;18.690;2023-04-25T01:22:42;12.13;72.36
71082;SHT31;58740;50.672;18.690;2023-04-25T01:25:10;12.09;72.28
71082;SHT31;58740;50.672;18.690;2023-04-25T01:27:39;12.05;71.70
71082;SHT31;58740;50.672;18.690;2023-04-25T01:30:08;12.01;71.66
71082;SHT31;58740;50.672;18.690;2023-04-25T01:32:36;11.97;71.67
71082;SHT31;58740;50.672;18.690;2023-04-25T01:35:08;11.93;71.42
71082;SHT31;58740;50.672;18.690;2023-04-25T01:37:42;11.91;71.54
71082;SHT31;58740;50.672;18.690;2023-04-25T01:40:10;11.87;71.44
71082;SHT31;58740;50.672;18.690;2023-04-25T01:42:41;11.86;71.40
71082;SHT31;58740;50.672;18.690;2023-04-25T01:45:11;11.84;71.33
71082;SHT31;58740;50.672;18.690;2023-04-25T01:47:39;11.83;71.10
71082;SHT31;58740;50.672;18.690;2023-04-25T01:50:09;11.78;71.06
71082;SHT31;58740;50.672;18.690;2023-04-25T01:52:38;11.77;71.14
71082;SHT31;58740;50.672;18.690;2023-04-25T01:55:06;11.75;71.03
71082;SHT31;58740;50.672;18.690;2023-04-25T01:57:34;11.74;70.84
71082;SHT31;58740;50.672;18.690;2023-04-25T02:00:04;11.73;70.89
71082;SHT31;58740;50.672;18.690;2023-04-25T02:02:34;11.71;71.03
71082;SHT31;58740;50.672;18.690;2023-04-25T02:05:03;11.68;70.92
71082;SHT31;58740;50.672;18.690;2023-04-25T02:07:32;11.68;71.07
71082;SHT31;58740;50.672;18.690;2023-04-25T02:10:00;11.65;70.93
71082;SHT31;58740;50.672;18.690;2023-04-25T02:12:27;11.62;70.66
71082;SHT31;58740;50.672;18.690;2023-04-25T02:14:56;11.60;70.67
71082;SHT31;58740;50.672;18.690;2023-04-25T02:17:23;11.61;70.84
71082;SHT31;58740;50.672;18.690;2023-04-25T02:19:51;11.59;70.70
71082;SHT31;58740;50.672;18.690;2023-04-25T02:22:19;11.58;70.64
71082;SHT31;58740;50.672;18.690;2023-04-25T02:24:47;11.56;70.51
71082;SHT31;58740;50.672;18.690;2023-04-25T02:27:14;11.53;70.45
71082;SHT31;58740;50.672;18.690;2023-04-25T02:29:42;11.51;70.37
71082;SHT31;58740;50.672;18.690;2023-04-25T02:32:10;11.51;70.56
71082;SHT31;58740;50.672;18.690;2023-04-25T02:34:37;11.50;70.51
71082;SHT31;58740;50.672;18.690;2023-04-25T02:37:05;11.49;70.39
71082;SHT31;58740;50.672;18.690;2023-04-25T02:39:33;11.46;70.58
71082;SHT31;58740;50.672;18.690;2023-04-25T02:42:00;11.44;70.66
71082;SHT31;58740;50.672;18.690;2023-04-25T02:44:28;11.44;70.66
71082;SHT31;58740;50.672;18.690;2023-04-25T02:46:56;11.44;70.61
71082;SHT31;58740;50.672;18.690;2023-04-25T02:49:24;11.39;70.83
71082;SHT31;58740;50.672;18.690;2023-04-25T02:51:52;11.39;70.96
71082;SHT31;58740;50.672;18.690;2023-04-25T02:54:20;11.40;70.90
71082;SHT31;58740;50.672;18.690;2023-04-25T02:56:47;11.41;70.92
71082;SHT31;58740;50.672;18.690;2023-04-25T02:59:15;11.41;70.91
71082;SHT31;58740;50.672;18.690;2023-04-25T03:01:43;11.41;70.99
71082;SHT31;58740;50.672;18.690;2023-04-25T03:04:10;11.38;70.88
71082;SHT31;58740;50.672;18.690;2023-04-25T03:06:38;11.36;70.97
71082;SHT31;58740;50.672;18.690;2023-04-25T03:09:06;11.36;70.97
71082;SHT31;58740;50.672;18.690;2023-04-25T03:11:34;11.34;70.78
71082;SHT31;58740;50.672;18.690;2023-04-25T03:14:02;11.32;70.87
71082;SHT31;58740;50.672;18.690;2023-04-25T03:16:29;11.33;70.79
71082;SHT31;58740;50.672;18.690;2023-04-25T03:18:58;11.32;70.75
71082;SHT31;58740;50.672;18.690;2023-04-25T03:21:26;11.31;70.59
71082;SHT31;58740;50.672;18.690;2023-04-25T03:23:53;11.29;70.46
71082;SHT31;58740;50.672;18.690;2023-04-25T03:26:21;11.27;70.53
71082;SHT31;58740;50.672;18.690;2023-04-25T03:28:49;11.24;70.52
71082;SHT31;58740;50.672;18.690;2023-04-25T03:31:17;11.22;70.59
71082;SHT31;58740;50.672;18.690;2023-04-25T03:33:45;11.19;70.71
71082;SHT31;58740;50.672;18.690;2023-04-25T03:36:12;11.19;70.84
71082;SHT31;58740;50.672;18.690;2023-04-25T03:38:40;11.17;70.74
71082;SHT31;58740;50.672;18.690;2023-04-25T03:41:09;11.16;70.79
71082;SHT31;58740;50.672;18.690;2023-04-25T03:43:36;11.14;70.72
71082;SHT31;58740;50.672;18.690;2023-04-25T03:46:04;11.09;70.70
71082;SHT31;58740;50.672;18.690;2023-04-25T03:48:32;11.07;70.86
71082;SHT31;58740;50.672;18.690;2023-04-25T03:51:00;11.07;70.96
71082;SHT31;58740;50.672;18.690;2023-04-25T03:53:28;11.06;71.00
71082;SHT31;58740;50.672;18.690;2023-04-25T03:55:55;11.07;70.96
71082;SHT31;58740;50.672;18.690;2023-04-25T03:58:23;11.06;71.02
71082;SHT31;58740;50.672;18.690;2023-04-25T04:00:51;11.06;71.03
71082;SHT31;58740;50.672;18.690;2023-04-25T04:03:19;11.07;71.11
71082;SHT31;58740;50.672;18.690;2023-04-25T04:05:48;11.07;71.13
71082;SHT31;58740;50.672;18.690;2023-04-25T04:08:16;11.07;71.04
71082;SHT31;58740;50.672;18.690;2023-04-25T04:10:43;11.03;71.05
71082;SHT31;58740;50.672;18.690;2023-04-25T04:13:11;11.02;71.19
71082;SHT31;58740;50.672;18.690;2023-04-25T04:15:39;11.01;71.13
71082;SHT31;58740;50.672;18.690;2023-04-25T04:18:06;10.98;71.10
71082;SHT31;58740;50.672;18.690;2023-04-25T04:20:34;10.96;71.11
71082;SHT31;58740;50.672;18.690;2023-04-25T04:23:02;10.96;71.10
71082;SHT31;58740;50.672;18.690;2023-04-25T04:25:30;10.95;71.06
71082;SHT31;58740;50.672;18.690;2023-04-25T04:27:58;10.96;71.04
71082;SHT31;58740;50.672;18.690;2023-04-25T04:30:26;10.96;70.94
71082;SHT31;58740;50.672;18.690;2023-04-25T04:32:58;10.94;70.93
71082;SHT31;58740;50.672;18.690;2023-04-25T04:35:28;10.92;70.82
71082;SHT31;58740;50.672;18.690;2023-04-25T04:37:56;10.92;70.92
71082;SHT31;58740;50.672;18.690;2023-04-25T04:40:24;10.93;70.98
71082;SHT31;58740;50.672;18.690;2023-04-25T04:42:52;10.95;71.01
71082;SHT31;58740;50.672;18.690;2023-04-25T04:45:20;10.97;70.93
71082;SHT31;58740;50.672;18.690;2023-04-25T04:47:49;10.95;70.90
71082;SHT31;58740;50.672;18.690;2023-04-25T04:50:17;10.94;70.82
71082;SHT31;58740;50.672;18.690;2023-04-25T04:52:45;10.95;70.75
71082;SHT31;58740;50.672;18.690;2023-04-25T04:55:13;10.96;70.75
71082;SHT31;58740;50.672;18.690;2023-04-25T04:57:40;10.94;70.57
71082;SHT31;58740;50.672;18.690;2023-04-25T05:00:09;10.94;70.63
71082;SHT31;58740;50.672;18.690;2023-04-25T05:02:38;10.95;70.42
71082;SHT31;58740;50.672;18.690;2023-04-25T05:05:07;10.93;70.37
71082;SHT31;58740;50.672;18.690;2023-04-25T05:07:35;10.94;70.43
71082;SHT31;58740;50.672;18.690;2023-04-25T05:10:03;10.93;70.29
71082;SHT31;58740;50.672;18.690;2023-04-25T05:12:31;10.89;70.25
71082;SHT31;58740;50.672;18.690;2023-04-25T05:15:00;10.89;70.39
71082;SHT31;58740;50.672;18.690;2023-04-25T05:17:28;10.90;70.28
71082;SHT31;58740;50.672;18.690;2023-04-25T05:19:55;10.90;70.16
71082;SHT31;58740;50.672;18.690;2023-04-25T05:22:23;10.89;69.96
71082;SHT31;58740;50.672;18.690;2023-04-25T05:24:51;10.86;69.93
71082;SHT31;58740;50.672;18.690;2023-04-25T05:27:22;10.85;70.17
71082;SHT31;58740;50.672;18.690;2023-04-25T05:29:51;10.87;69.99
71082;SHT31;58740;50.672;18.690;2023-04-25T05:32:20;10.89;69.98
71082;SHT31;58740;50.672;18.690;2023-04-25T05:34:48;10.92;70.08
71082;SHT31;58740;50.672;18.690;2023-04-25T05:37:15;10.94;69.78
71082;SHT31;58740;50.672;18.690;2023-04-25T05:39:43;10.94;69.94
71082;SHT31;58740;50.672;18.690;2023-04-25T05:42:11;10.96;70.14
71082;SHT31;58740;50.672;18.690;2023-04-25T05:44:39;10.97;69.68
71082;SHT31;58740;50.672;18.690;2023-04-25T05:47:07;10.98;69.80
71082;SHT31;58740;50.672;18.690;2023-04-25T05:49:34;10.98;69.64
71082;SHT31;58740;50.672;18.690;2023-04-25T05:52:02;10.96;69.56
71082;SHT31;58740;50.672;18.690;2023-04-25T05:54:30;10.94;69.51
71082;SHT31;58740;50.672;18.690;2023-04-25T05:56:58;10.93;69.53
71082;SHT31;58740;50.672;18.690;2023-04-25T05:59:25;10.94;69.65
71082;SHT31;58740;50.672;18.690;2023-04-25T06:01:53;10.94;69.53
71082;SHT31;58740;50.672;18.690;2023-04-25T06:04:21;10.93;69.46
71082;SHT31;58740;50.672;18.690;2023-04-25T06:06:49;10.94;69.41
71082;SHT31;58740;50.672;18.690;2023-04-25T06:09:17;10.95;69.40
71082;SHT31;58740;50.672;18.690;2023-04-25T06:11:45;10.96;69.23
71082;SHT31;58740;50.672;18.690;2023-04-25T06:14:12;10.98;69.13
71082;SHT31;58740;50.672;18.690;2023-04-25T06:16:40;10.98;68.96
71082;SHT31;58740;50.672;18.690;2023-04-25T06:19:08;10.98;68.92
71082;SHT31;58740;50.672;18.690;2023-04-25T06:21:35;10.97;68.69
71082;SHT31;58740;50.672;18.690;2023-04-25T06:24:03;10.97;68.73
71082;SHT31;58740;50.672;18.690;2023-04-25T06:26:31;10.98;68.56
71082;SHT31;58740;50.672;18.690;2023-04-25T06:28:59;10.99;68.33
71082;SHT31;58740;50.672;18.690;2023-04-25T06:31:26;10.99;68.48
71082;SHT31;58740;50.672;18.690;2023-04-25T06:33:56;10.98;68.30
71082;SHT31;58740;50.672;18.690;2023-04-25T06:36:24;10.96;68.25
71082;SHT31;58740;50.672;18.690;2023-04-25T06:38:53;10.95;67.96
71082;SHT31;58740;50.672;18.690;2023-04-25T06:41:22;10.95;68.11
71082;SHT31;58740;50.672;18.690;2023-04-25T06:43:49;10.96;67.78
71082;SHT31;58740;50.672;18.690;2023-04-25T06:46:17;10.93;67.63
71082;SHT31;58740;50.672;18.690;2023-04-25T06:48:46;10.95;67.86
71082;SHT31;58740;50.672;18.690;2023-04-25T06:51:13;10.97;67.96
71082;SHT31;58740;50.672;18.690;2023-04-25T06:53:41;10.98;67.96
71082;SHT31;58740;50.672;18.690;2023-04-25T06:56:09;11.01;67.83
71082;SHT31;58740;50.672;18.690;2023-04-25T06:58:37;11.05;67.91
71082;SHT31;58740;50.672;18.690;2023-04-25T07:01:05;11.10;67.52
71082;SHT31;58740;50.672;18.690;2023-04-25T07:03:33;11.17;67.51
71082;SHT31;58740;50.672;18.690;2023-04-25T07:06:01;11.24;67.46
71082;SHT31;58740;50.672;18.690;2023-04-25T07:08:29;11.30;67.27
71082;SHT31;58740;50.672;18.690;2023-04-25T07:10:57;11.34;66.62
71082;SHT31;58740;50.672;18.690;2023-04-25T07:13:25;11.38;66.56
71082;SHT31;58740;50.672;18.690;2023-04-25T07:15:52;11.43;66.46
71082;SHT31;58740;50.672;18.690;2023-04-25T07:18:23;11.46;65.70
71082;SHT31;58740;50.672;18.690;2023-04-25T07:20:51;11.46;65.67
71082;SHT31;58740;50.672;18.690;2023-04-25T07:23:18;11.51;65.98
71082;SHT31;58740;50.672;18.690;2023-04-25T07:25:46;11.56;65.83
71082;SHT31;58740;50.672;18.690;2023-04-25T07:28:14;11.60;65.36
71082;SHT31;58740;50.672;18.690;2023-04-25T07:30:45;11.60;65.14
71082;SHT31;58740;50.672;18.690;2023-04-25T07:33:13;11.63;65.12
71082;SHT31;58740;50.672;18.690;2023-04-25T07:35:41;11.65;64.95
71082;SHT31;58740;50.672;18.690;2023-04-25T07:38:09;11.64;65.15
71082;SHT31;58740;50.672;18.690;2023-04-25T07:40:37;11.64;65.18
71082;SHT31;58740;50.672;18.690;2023-04-25T07:43:05;11.63;65.01
71082;SHT31;58740;50.672;18.690;2023-04-25T07:45:33;11.64;65.06
71082;SHT31;58740;50.672;18.690;2023-04-25T07:48:00;11.65;65.08
71082;SHT31;58740;50.672;18.690;2023-04-25T07:50:28;11.64;64.55
71082;SHT31;58740;50.672;18.690;2023-04-25T07:52:56;11.64;64.24
71082;SHT31;58740;50.672;18.690;2023-04-25T07:55:24;11.65;64.21
71082;SHT31;58740;50.672;18.690;2023-04-25T07:57:52;11.64;64.35
71082;SHT31;58740;50.672;18.690;2023-04-25T08:00:19;11.70;64.43
71082;SHT31;58740;50.672;18.690;2023-04-25T08:02:47;11.74;63.93
71082;SHT31;58740;50.672;18.690;2023-04-25T08:05:15;11.76;63.41
71082;SHT31;58740;50.672;18.690;2023-04-25T08:07:47;11.77;63.16
71082;SHT31;58740;50.672;18.690;2023-04-25T08:10:15;11.82;63.17
71082;SHT31;58740;50.672;18.690;2023-04-25T08:12:43;11.87;63.33
71082;SHT31;58740;50.672;18.690;2023-04-25T08:15:11;11.94;63.58
71082;SHT31;58740;50.672;18.690;2023-04-25T08:17:41;11.99;63.02
71082;SHT31;58740;50.672;18.690;2023-04-25T08:20:08;12.03;63.07
71082;SHT31;58740;50.672;18.690;2023-04-25T08:22:38;12.08;62.45
71082;SHT31;58740;50.672;18.690;2023-04-25T08:25:05;12.10;62.48
71082;SHT31;58740;50.672;18.690;2023-04-25T08:27:33;12.12;62.24
71082;SHT31;58740;50.672;18.690;2023-04-25T08:30:02;12.14;61.36
71082;SHT31;58740;50.672;18.690;2023-04-25T08:32:31;12.13;61.18
71082;SHT31;58740;50.672;18.690;2023-04-25T08:34:58;12.13;60.89
71082;SHT31;58740;50.672;18.690;2023-04-25T08:37:26;12.15;61.23
71082;SHT31;58740;50.672;18.690;2023-04-25T08:39:54;12.20;61.37
71082;SHT31;58740;50.672;18.690;2023-04-25T08:42:24;12.24;60.20
71082;SHT31;58740;50.672;18.690;2023-04-25T08:44:54;12.26;59.96
71082;SHT31;58740;50.672;18.690;2023-04-25T08:47:22;12.28;59.91
71082;SHT31;58740;50.672;18.690;2023-04-25T08:49:51;12.30;60.10
71082;SHT31;58740;50.672;18.690;2023-04-25T08:52:22;12.37;59.68
71082;SHT31;58740;50.672;18.690;2023-04-25T08:54:51;12.40;58.87
71082;SHT31;58740;50.672;18.690;2023-04-25T08:57:22;12.41;58.47
71082;SHT31;58740;50.672;18.690;2023-04-25T08:59:51;12.45;59.21
71082;SHT31;58740;50.672;18.690;2023-04-25T09:02:21;12.52;59.40
71082;SHT31;58740;50.672;18.690;2023-04-25T09:04:52;12.58;59.06
71082;SHT31;58740;50.672;18.690;2023-04-25T09:07:22;12.64;58.79
71082;SHT31;58740;50.672;18.690;2023-04-25T09:09:50;12.68;58.72
71082;SHT31;58740;50.672;18.690;2023-04-25T09:12:18;12.74;58.27
71082;SHT31;58740;50.672;18.690;2023-04-25T09:15:06;12.74;58.08
71082;SHT31;58740;50.672;18.690;2023-04-25T09:17:37;12.78;58.20
71082;SHT31;58740;50.672;18.690;2023-04-25T09:20:12;12.80;57.38
71082;SHT31;58740;50.672;18.690;2023-04-25T09:22:40;12.75;56.80
71082;SHT31;58740;50.672;18.690;2023-04-25T09:25:10;12.67;56.87
71082;SHT31;58740;50.672;18.690;2023-04-25T09:27:54;12.62;57.49
71082;SHT31;58740;50.672;18.690;2023-04-25T09:30:28;12.59;57.71
71082;SHT31;58740;50.672;18.690;2023-04-25T09:33:03;12.56;57.65
71082;SHT31;58740;50.672;18.690;2023-04-25T09:35:36;12.55;57.63
71082;SHT31;58740;50.672;18.690;2023-04-25T09:38:11;12.54;57.31
71082;SHT31;58740;50.672;18.690;2023-04-25T09:40:45;12.53;56.97
71082;SHT31;58740;50.672;18.690;2023-04-25T09:43:21;12.53;56.74
71082;SHT31;58740;50.672;18.690;2023-04-25T09:45:52;12.53;56.34
71082;SHT31;58740;50.672;18.690;2023-04-25T09:48:26;12.55;56.29
71082;SHT31;58740;50.672;18.690;2023-04-25T09:53:45;12.62;56.36
71082;SHT31;58740;50.672;18.690;2023-04-25T09:56:18;12.70;56.32
71082;SHT31;58740;50.672;18.690;2023-04-25T09:58:47;12.75;54.93
71082;SHT31;58740;50.672;18.690;2023-04-25T10:01:21;12.73;54.28
71082;SHT31;58740;50.672;18.690;2023-04-25T10:03:50;12.74;54.58
71082;SHT31;58740;50.672;18.690;2023-04-25T10:06:24;12.72;53.61
71082;SHT31;58740;50.672;18.690;2023-04-25T10:08:54;12.70;54.42
71082;SHT31;58740;50.672;18.690;2023-04-25T10:11:23;12.74;54.12
71082;SHT31;58740;50.672;18.690;2023-04-25T10:13:54;12.72;53.69
71082;SHT31;58740;50.672;18.690;2023-04-25T10:16:23;12.69;53.50
71082;SHT31;58740;50.672;18.690;2023-04-25T10:18:52;12.69;54.12
71082;SHT31;58740;50.672;18.690;2023-04-25T10:21:20;12.67;54.07
71082;SHT31;58740;50.672;18.690;2023-04-25T10:23:49;12.68;54.49
71082;SHT31;58740;50.672;18.690;2023-04-25T10:26:17;12.73;54.35
71082;SHT31;58740;50.672;18.690;2023-04-25T10:29:02;12.79;54.94
71082;SHT31;58740;50.672;18.690;2023-04-25T10:31:31;12.84;54.53
71082;SHT31;58740;50.672;18.690;2023-04-25T10:34:00;12.85;54.01
71082;SHT31;58740;50.672;18.690;2023-04-25T10:36:30;12.85;53.82
71082;SHT31;58740;50.672;18.690;2023-04-25T10:39:03;12.88;53.96
71082;SHT31;58740;50.672;18.690;2023-04-25T10:41:45;12.91;53.93
71082;SHT31;58740;50.672;18.690;2023-04-25T10:44:26;12.93;53.37
71082;SHT31;58740;50.672;18.690;2023-04-25T10:46:59;12.90;53.16
71082;SHT31;58740;50.672;18.690;2023-04-25T10:49:29;12.92;53.28
71082;SHT31;58740;50.672;18.690;2023-04-25T10:52:25;12.93;53.43
71082;SHT31;58740;50.672;18.690;2023-04-25T10:54:56;12.94;53.44
71082;SHT31;58740;50.672;18.690;2023-04-25T11:00:15;12.90;52.16
71082;SHT31;58740;50.672;18.690;2023-04-25T11:02:48;12.80;52.10
71082;SHT31;58740;50.672;18.690;2023-04-25T11:05:22;12.70;51.91
71082;SHT31;58740;50.672;18.690;2023-04-25T11:08:13;12.59;52.09
71082;SHT31;58740;50.672;18.690;2023-04-25T11:11:00;12.53;52.70
71082;SHT31;58740;50.672;18.690;2023-04-25T11:13:29;12.55;53.16
71082;SHT31;58740;50.672;18.690;2023-04-25T11:15:57;12.53;52.92
71082;SHT31;58740;50.672;18.690;2023-04-25T11:18:42;12.50;53.34
71082;SHT31;58740;50.672;18.690;2023-04-25T11:21:13;12.48;53.20
71082;SHT31;58740;50.672;18.690;2023-04-25T11:23:41;12.48;53.32
71082;SHT31;58740;50.672;18.690;2023-04-25T11:26:13;12.48;53.08
71082;SHT31;58740;50.672;18.690;2023-04-25T11:28:44;12.48;53.22
71082;SHT31;58740;50.672;18.690;2023-04-25T11:31:13;12.47;53.46
71082;SHT31;58740;50.672;18.690;2023-04-25T11:33:41;12.51;53.64
71082;SHT31;58740;50.672;18.690;2023-04-25T11:36:09;12.54;53.79
71082;SHT31;58740;50.672;18.690;2023-04-25T11:38:37;12.60;54.13
71082;SHT31;58740;50.672;18.690;2023-04-25T11:41:05;12.65;54.48
71082;SHT31;58740;50.672;18.690;2023-04-25T11:43:33;12.64;53.24
71082;SHT31;58740;50.672;18.690;2023-04-25T11:46:06;12.63;53.50
71082;SHT31;58740;50.672;18.690;2023-04-25T11:48:39;12.61;52.92
71082;SHT31;58740;50.672;18.690;2023-04-25T11:51:08;12.59;53.26
71082;SHT31;58740;50.672;18.690;2023-04-25T11:53:36;12.57;53.25
71082;SHT31;58740;50.672;18.690;2023-04-25T11:56:10;12.57;53.71
71082;SHT31;58740;50.672;18.690;2023-04-25T12:01:31;12.52;53.58
71082;SHT31;58740;50.672;18.690;2023-04-25T12:04:16;12.51;53.79
71082;SHT31;58740;50.672;18.690;2023-04-25T12:06:46;12.49;53.87
71082;SHT31;58740;50.672;18.690;2023-04-25T12:09:17;12.49;54.20
71082;SHT31;58740;50.672;18.690;2023-04-25T12:11:52;12.50;54.51
71082;SHT31;58740;50.672;18.690;2023-04-25T12:14:31;12.52;54.69
71082;SHT31;58740;50.672;18.690;2023-04-25T12:17:02;12.54;54.79
71082;SHT31;58740;50.672;18.690;2023-04-25T12:19:36;12.56;55.00
71082;SHT31;58740;50.672;18.690;2023-04-25T12:22:29;12.58;55.17
71082;SHT31;58740;50.672;18.690;2023-04-25T12:24:59;12.60;54.84
71082;SHT31;58740;50.672;18.690;2023-04-25T12:27:27;12.59;54.29
71082;SHT31;58740;50.672;18.690;2023-04-25T12:29:55;12.56;54.12
71082;SHT31;58740;50.672;18.690;2023-04-25T12:32:25;12.52;54.32
71082;SHT31;58740;50.672;18.690;2023-04-25T12:34:54;12.52;54.17
71082;SHT31;58740;50.672;18.690;2023-04-25T12:37:23;12.50;54.99
71082;SHT31;58740;50.672;18.690;2023-04-25T12:39:51;12.51;55.03
71082;SHT31;58740;50.672;18.690;2023-04-25T12:42:19;12.49;54.37
71082;SHT31;58740;50.672;18.690;2023-04-25T12:44:47;12.47;54.47
71082;SHT31;58740;50.672;18.690;2023-04-25T12:47:15;12.45;55.03
71082;SHT31;58740;50.672;18.690;2023-04-25T12:49:43;12.47;54.87
71082;SHT31;58740;50.672;18.690;2023-04-25T12:52:11;12.47;54.64
71082;SHT31;58740;50.672;18.690;2023-04-25T12:54:42;12.46;54.39
71082;SHT31;58740;50.672;18.690;2023-04-25T12:57:10;12.45;54.89
71082;SHT31;58740;50.672;18.690;2023-04-25T12:59:39;12.45;55.23
71082;SHT31;58740;50.672;18.690;2023-04-25T13:02:07;12.45;55.38
71082;SHT31;58740;50.672;18.690;2023-04-25T13:04:36;12.45;55.91
71082;SHT31;58740;50.672;18.690;2023-04-25T13:07:04;12.46;55.62
71082;SHT31;58740;50.672;18.690;2023-04-25T13:09:33;12.48;55.89
71082;SHT31;58740;50.672;18.690;2023-04-25T13:12:01;12.52;56.09
71082;SHT31;58740;50.672;18.690;2023-04-25T13:14:29;12.52;55.32
71082;SHT31;58740;50.672;18.690;2023-04-25T13:16:58;12.51;55.04
71082;SHT31;58740;50.672;18.690;2023-04-25T13:19:26;12.49;55.53
71082;SHT31;58740;50.672;18.690;2023-04-25T13:21:55;12.47;55.40
71082;SHT31;58740;50.672;18.690;2023-04-25T13:24:23;12.43;55.67
71082;SHT31;58740;50.672;18.690;2023-04-25T13:26:50;12.40;55.64
71082;SHT31;58740;50.672;18.690;2023-04-25T13:29:18;12.37;56.03
71082;SHT31;58740;50.672;18.690;2023-04-25T13:31:46;12.34;56.23
71082;SHT31;58740;50.672;18.690;2023-04-25T13:34:14;12.30;56.36
71082;SHT31;58740;50.672;18.690;2023-04-25T13:36:42;12.25;56.60
71082;SHT31;58740;50.672;18.690;2023-04-25T13:39:10;12.22;56.78
71082;SHT31;58740;50.672;18.690;2023-04-25T13:41:38;12.21;56.44
71082;SHT31;58740;50.672;18.690;2023-04-25T13:44:06;12.20;56.67
71082;SHT31;58740;50.672;18.690;2023-04-25T13:46:33;12.20;56.71
71082;SHT31;58740;50.672;18.690;2023-04-25T13:49:13;12.24;56.96
71082;SHT31;58740;50.672;18.690;2023-04-25T13:51:41;12.30;56.94
71082;SHT31;58740;50.672;18.690;2023-04-25T13:54:10;12.35;56.90
71082;SHT31;58740;50.672;18.690;2023-04-25T13:56:37;12.42;56.55
71082;SHT31;58740;50.672;18.690;2023-04-25T13:59:06;12.49;56.10
71082;SHT31;58740;50.672;18.690;2023-04-25T14:01:34;12.56;55.71
71082;SHT31;58740;50.672;18.690;2023-04-25T14:04:03;12.62;55.47
71082;SHT31;58740;50.672;18.690;2023-04-25T14:06:32;12.70;55.06
71082;SHT31;58740;50.672;18.690;2023-04-25T14:09:00;12.78;54.22
71082;SHT31;58740;50.672;18.690;2023-04-25T14:11:28;12.83;53.25
71082;SHT31;58740;50.672;18.690;2023-04-25T14:13:56;12.85;52.85
71082;SHT31;58740;50.672;18.690;2023-04-25T14:16:23;12.88;52.94
71082;SHT31;58740;50.672;18.690;2023-04-25T14:18:51;12.89;52.43
71082;SHT31;58740;50.672;18.690;2023-04-25T14:21:20;12.93;52.46
71082;SHT31;58740;50.672;18.690;2023-04-25T14:23:48;12.96;52.55
71082;SHT31;58740;50.672;18.690;2023-04-25T14:26:16;12.96;52.10
71082;SHT31;58740;50.672;18.690;2023-04-25T14:28:44;12.98;53.14
71082;SHT31;58740;50.672;18.690;2023-04-25T14:31:12;13.03;53.28
71082;SHT31;58740;50.672;18.690;2023-04-25T14:33:40;13.07;52.98
71082;SHT31;58740;50.672;18.690;2023-04-25T14:36:10;13.12;52.60
71082;SHT31;58740;50.672;18.690;2023-04-25T14:38:38;13.10;51.73
71082;SHT31;58740;50.672;18.690;2023-04-25T14:41:06;13.10;51.94
71082;SHT31;58740;50.672;18.690;2023-04-25T14:43:33;13.10;51.53
71082;SHT31;58740;50.672;18.690;2023-04-25T14:46:01;13.16;51.47
71082;SHT31;58740;50.672;18.690;2023-04-25T14:48:30;13.22;51.36
71082;SHT31;58740;50.672;18.690;2023-04-25T14:50:57;13.28;50.50
71082;SHT31;58740;50.672;18.690;2023-04-25T14:53:27;13.26;49.70
71082;SHT31;58740;50.672;18.690;2023-04-25T14:55:55;13.22;50.28
71082;SHT31;58740;50.672;18.690;2023-04-25T14:58:23;13.20;50.63
71082;SHT31;58740;50.672;18.690;2023-04-25T15:00:51;13.17;50.47
71082;SHT31;58740;50.672;18.690;2023-04-25T15:03:19;13.15;50.70
71082;SHT31;58740;50.672;18.690;2023-04-25T15:05:48;13.12;50.29
71082;SHT31;58740;50.672;18.690;2023-04-25T15:08:15;13.08;50.63
71082;SHT31;58740;50.672;18.690;2023-04-25T15:10:43;13.05;50.23
71082;SHT31;58740;50.672;18.690;2023-04-25T15:13:12;13.00;50.54
71082;SHT31;58740;50.672;18.690;2023-04-25T15:15:40;12.97;49.91
71082;SHT31;58740;50.672;18.690;2023-04-25T15:18:08;12.90;50.09
71082;SHT31;58740;50.672;18.690;2023-04-25T15:20:36;12.85;50.54
71082;SHT31;58740;50.672;18.690;2023-04-25T15:23:04;12.84;51.13
71082;SHT31;58740;50.672;18.690;2023-04-25T15:25:32;12.82;50.93
71082;SHT31;58740;50.672;18.690;2023-04-25T15:27:59;12.81;50.80
71082;SHT31;58740;50.672;18.690;2023-04-25T15:30:27;12.78;50.57
71082;SHT31;58740;50.672;18.690;2023-04-25T15:32:55;12.74;50.48
71082;SHT31;58740;50.672;18.690;2023-04-25T15:35:22;12.71;50.93